sensor_id;sensor_type;location;lat;lon;timestamp;temperature;humidity
75666;DHT22;64263;49.492;11.056;2023-07-22T00:01:06;14.00;85.40
75666;DHT22;64263;49.492;11.056;2023-07-22T00:03:31;14.00;85.70
75666;DHT22;64263;49.492;11.056;2023-07-22T00:06:07;14.00;85.50
75666;DHT22;64263;49.492;11.056;2023-07-22T00:08:34;13.90;85.80
75666;DHT22;64263;49.492;11.056;2023-07-22T00:10:59;13.80;86.10
75666;DHT22;64263;49.492;11.056;2023-07-22T00:13:25;13.70;86.30
75666;DHT22;64263;49.492;11.056;2023-07-22T00:15:51;13.60;86.70
75666;DHT22;64263;49.492;11.056;2023-07-22T00:18:16;13.50;87.20
75666;DHT22;64263;49.492;11.056;2023-07-22T00:20:41;13.50;87.50
75666;DHT22;64263;49.492;11.056;2023-07-22T00:23:07;13.50;87.90
75666;DHT22;64263;49.492;11.056;2023-07-22T00:25:32;13.50;88.10
75666;DHT22;64263;49.492;11.056;2023-07-22T00:27:58;13.50;87.80
75666;DHT22;64263;49.492;11.056;2023-07-22T00:30:23;13.50;87.90
75666;DHT22;64263;49.492;11.056;2023-07-22T00:32:49;13.50;88.20
75666;DHT22;64263;49.492;11.056;2023-07-22T00:35:14;13.40;88.10
75666;DHT22;64263;49.492;11.056;2023-07-22T00:37:40;13.40;88.30
75666;DHT22;64263;49.492;11.056;2023-07-22T00:40:05;13.40;88.10
75666;DHT22;64263;49.492;11.056;2023-07-22T00:42:31;13.40;88.00
75666;DHT22;64263;49.492;11.056;2023-07-22T00:44:57;13.40;88.00
75666;DHT22;64263;49.492;11.056;2023-07-22T00:47:22;13.40;88.20
75666;DHT22;64263;49.492;11.056;2023-07-22T00:49:49;13.40;88.00
75666;DHT22;64263;49.492;11.056;2023-07-22T00:52:16;13.40;87.90
75666;DHT22;64263;49.492;11.056;2023-07-22T00:54:41;13.30;87.90
75666;DHT22;64263;49.492;11.056;2023-07-22T00:57:07;13.30;87.90
75666;DHT22;64263;49.492;11.056;2023-07-22T00:59:33;13.40;87.80
75666;DHT22;64263;49.492;11.056;2023-07-22T01:01:59;13.40;87.80
75666;DHT22;64263;49.492;11.056;2023-07-22T01:04:24;13.40;87.70
75666;DHT22;64263;49.492;11.056;2023-07-22T01:06:51;13.40;87.70
75666;DHT22;64263;49.492;11.056;2023-07-22T01:09:17;13.40;87.60
75666;DHT22;64263;49.492;11.056;2023-07-22T01:11:42;13.40;87.60
75666;DHT22;64263;49.492;11.056;2023-07-22T01:14:08;13.40;87.70
75666;DHT22;64263;49.492;11.056;2023-07-22T01:16:34;13.40;87.70
75666;DHT22;64263;49.492;11.056;2023-07-22T01:19:00;13.40;87.70
75666;DHT22;64263;49.492;11.056;2023-07-22T01:21:26;13.40;87.70
75666;DHT22;64263;49.492;11.056;2023-07-22T01:23:52;13.40;87.70
75666;DHT22;64263;49.492;11.056;2023-07-22T01:26:18;13.30;87.80
75666;DHT22;64263;49.492;11.056;2023-07-22T01:28:44;13.30;88.00
75666;DHT22;64263;49.492;11.056;2023-07-22T01:31:10;13.30;87.90
75666;DHT22;64263;49.492;11.056;2023-07-22T01:33:35;13.30;87.80
75666;DHT22;64263;49.492;11.056;2023-07-22T01:36:02;13.20;87.90
75666;DHT22;64263;49.492;11.056;2023-07-22T01:38:27;13.10;88.20
75666;DHT22;64263;49.492;11.056;2023-07-22T01:40:53;13.10;88.40
75666;DHT22;64263;49.492;11.056;2023-07-22T01:43:18;13.10;88.50
75666;DHT22;64263;49.492;11.056;2023-07-22T01:45:43;13.20;88.30
75666;DHT22;64263;49.492;11.056;2023-07-22T01:48:09;13.10;88.20
75666;DHT22;64263;49.492;11.056;2023-07-22T01:50:34;13.10;88.20
75666;DHT22;64263;49.492;11.056;2023-07-22T01:53:00;13.10;88.20
75666;DHT22;64263;49.492;11.056;2023-07-22T01:55:25;13.10;88.30
75666;DHT22;64263;49.492;11.056;2023-07-22T01:57:51;13.10;88.30
75666;DHT22;64263;49.492;11.056;2023-07-22T02:00:16;13.30;88.00
75666;DHT22;64263;49.492;11.056;2023-07-22T02:02:42;13.30;87.60
75666;DHT22;64263;49.492;11.056;2023-07-22T02:05:09;13.30;87.50
75666;DHT22;64263;49.492;11.056;2023-07-22T02:07:34;13.30;87.30
75666;DHT22;64263;49.492;11.056;2023-07-22T02:10:00;13.30;87.30
75666;DHT22;64263;49.492;11.056;2023-07-22T02:12:25;13.20;87.50
75666;DHT22;64263;49.492;11.056;2023-07-22T02:14:51;13.20;87.50
75666;DHT22;64263;49.492;11.056;2023-07-22T02:17:16;13.10;87.50
75666;DHT22;64263;49.492;11.056;2023-07-22T02:19:42;13.00;87.70
75666;DHT22;64263;49.492;11.056;2023-07-22T02:22:07;13.00;88.20
75666;DHT22;64263;49.492;11.056;2023-07-22T02:24:32;13.00;88.30
75666;DHT22;64263;49.492;11.056;2023-07-22T02:26:58;13.00;88.30
75666;DHT22;64263;49.492;11.056;2023-07-22T02:29:24;13.00;88.40
75666;DHT22;64263;49.492;11.056;2023-07-22T02:31:49;13.10;88.40
75666;DHT22;64263;49.492;11.056;2023-07-22T02:34:14;13.10;88.30
75666;DHT22;64263;49.492;11.056;2023-07-22T02:36:40;13.20;87.90
75666;DHT22;64263;49.492;11.056;2023-07-22T02:39:05;13.30;87.70
75666;DHT22;64263;49.492;11.056;2023-07-22T02:41:31;13.30;87.50
75666;DHT22;64263;49.492;11.056;2023-07-22T02:43:56;13.30;87.50
75666;DHT22;64263;49.492;11.056;2023-07-22T02:46:22;13.30;87.30
75666;DHT22;64263;49.492;11.056;2023-07-22T02:48:47;13.30;87.20
75666;DHT22;64263;49.492;11.056;2023-07-22T02:51:13;13.20;87.30
75666;DHT22;64263;49.492;11.056;2023-07-22T02:53:38;13.10;87.50
75666;DHT22;64263;49.492;11.056;2023-07-22T02:56:04;13.00;87.80
75666;DHT22;64263;49.492;11.056;2023-07-22T02:58:30;12.90;88.10
75666;DHT22;64263;49.492;11.056;2023-07-22T03:00:55;12.90;88.50
75666;DHT22;64263;49.492;11.056;2023-07-22T03:03:21;12.90;88.70
75666;DHT22;64263;49.492;11.056;2023-07-22T03:05:46;12.80;88.80
75666;DHT22;64263;49.492;11.056;2023-07-22T03:08:12;12.80;89.10
75666;DHT22;64263;49.492;11.056;2023-07-22T03:10:37;12.70;89.00
75666;DHT22;64263;49.492;11.056;2023-07-22T03:13:03;12.50;89.00
75666;DHT22;64263;49.492;11.056;2023-07-22T03:15:28;12.50;88.80
75666;DHT22;64263;49.492;11.056;2023-07-22T03:17:54;12.30;88.70
75666;DHT22;64263;49.492;11.056;2023-07-22T03:20:20;12.30;89.00
75666;DHT22;64263;49.492;11.056;2023-07-22T03:22:46;12.20;89.30
75666;DHT22;64263;49.492;11.056;2023-07-22T03:25:13;12.20;89.60
75666;DHT22;64263;49.492;11.056;2023-07-22T03:27:39;12.20;90.10
75666;DHT22;64263;49.492;11.056;2023-07-22T03:30:05;12.20;90.60
75666;DHT22;64263;49.492;11.056;2023-07-22T03:32:31;12.20;90.10
75666;DHT22;64263;49.492;11.056;2023-07-22T03:34:57;12.10;89.60
75666;DHT22;64263;49.492;11.056;2023-07-22T03:37:22;12.00;89.80
75666;DHT22;64263;49.492;11.056;2023-07-22T03:39:48;11.90;90.00
75666;DHT22;64263;49.492;11.056;2023-07-22T03:42:13;11.90;89.80
75666;DHT22;64263;49.492;11.056;2023-07-22T03:44:39;11.90;90.00
75666;DHT22;64263;49.492;11.056;2023-07-22T03:47:04;11.90;90.00
75666;DHT22;64263;49.492;11.056;2023-07-22T03:49:30;11.70;90.50
75666;DHT22;64263;49.492;11.056;2023-07-22T03:51:55;11.90;91.40
75666;DHT22;64263;49.492;11.056;2023-07-22T03:54:21;12.00;92.20
75666;DHT22;64263;49.492;11.056;2023-07-22T03:56:46;12.00;90.80
75666;DHT22;64263;49.492;11.056;2023-07-22T03:59:12;12.10;90.30
75666;DHT22;64263;49.492;11.056;2023-07-22T04:01:37;12.20;90.20
75666;DHT22;64263;49.492;11.056;2023-07-22T04:04:03;12.20;90.10
75666;DHT22;64263;49.492;11.056;2023-07-22T04:06:28;12.30;90.10
75666;DHT22;64263;49.492;11.056;2023-07-22T04:08:54;12.30;89.50
75666;DHT22;64263;49.492;11.056;2023-07-22T04:11:19;12.30;89.50
75666;DHT22;64263;49.492;11.056;2023-07-22T04:13:45;12.30;89.20
75666;DHT22;64263;49.492;11.056;2023-07-22T04:16:10;12.20;89.70
75666;DHT22;64263;49.492;11.056;2023-07-22T04:18:36;12.30;90.50
75666;DHT22;64263;49.492;11.056;2023-07-22T04:21:01;12.50;90.50
75666;DHT22;64263;49.492;11.056;2023-07-22T04:23:27;12.50;89.00
75666;DHT22;64263;49.492;11.056;2023-07-22T04:25:52;12.50;88.20
75666;DHT22;64263;49.492;11.056;2023-07-22T04:28:18;12.50;88.10
75666;DHT22;64263;49.492;11.056;2023-07-22T04:30:53;12.50;88.70
75666;DHT22;64263;49.492;11.056;2023-07-22T04:33:19;12.50;88.90
75666;DHT22;64263;49.492;11.056;2023-07-22T04:35:45;12.60;89.30
75666;DHT22;64263;49.492;11.056;2023-07-22T04:38:10;12.80;89.30
75666;DHT22;64263;49.492;11.056;2023-07-22T04:40:35;13.10;88.60
75666;DHT22;64263;49.492;11.056;2023-07-22T04:43:01;13.10;88.00
75666;DHT22;64263;49.492;11.056;2023-07-22T04:45:26;13.30;87.70
75666;DHT22;64263;49.492;11.056;2023-07-22T04:47:52;13.50;87.50
75666;DHT22;64263;49.492;11.056;2023-07-22T04:50:18;13.60;86.60
75666;DHT22;64263;49.492;11.056;2023-07-22T04:52:46;13.80;86.40
75666;DHT22;64263;49.492;11.056;2023-07-22T04:55:12;14.00;85.60
75666;DHT22;64263;49.492;11.056;2023-07-22T04:57:38;14.10;84.60
75666;DHT22;64263;49.492;11.056;2023-07-22T05:00:04;14.00;83.50
75666;DHT22;64263;49.492;11.056;2023-07-22T05:02:30;14.10;84.70
75666;DHT22;64263;49.492;11.056;2023-07-22T05:04:56;14.10;84.40
75666;DHT22;64263;49.492;11.056;2023-07-22T05:07:22;14.20;84.60
75666;DHT22;64263;49.492;11.056;2023-07-22T05:09:47;14.50;83.70
75666;DHT22;64263;49.492;11.056;2023-07-22T05:12:13;14.70;83.10
75666;DHT22;64263;49.492;11.056;2023-07-22T05:14:38;14.80;82.30
75666;DHT22;64263;49.492;11.056;2023-07-22T05:17:04;15.00;81.40
75666;DHT22;64263;49.492;11.056;2023-07-22T05:19:29;15.20;81.10
75666;DHT22;64263;49.492;11.056;2023-07-22T05:21:55;15.20;80.70
75666;DHT22;64263;49.492;11.056;2023-07-22T05:24:20;15.00;80.70
75666;DHT22;64263;49.492;11.056;2023-07-22T05:26:46;15.10;80.80
75666;DHT22;64263;49.492;11.056;2023-07-22T05:29:11;15.30;80.10
75666;DHT22;64263;49.492;11.056;2023-07-22T05:31:37;15.40;79.20
75666;DHT22;64263;49.492;11.056;2023-07-22T05:34:03;15.50;78.70
75666;DHT22;64263;49.492;11.056;2023-07-22T05:36:28;15.60;77.00
75666;DHT22;64263;49.492;11.056;2023-07-22T05:38:53;15.60;78.60
75666;DHT22;64263;49.492;11.056;2023-07-22T05:41:19;15.80;78.00
75666;DHT22;64263;49.492;11.056;2023-07-22T05:43:44;16.00;77.40
75666;DHT22;64263;49.492;11.056;2023-07-22T05:46:10;16.10;76.30
75666;DHT22;64263;49.492;11.056;2023-07-22T05:48:35;16.20;75.50
75666;DHT22;64263;49.492;11.056;2023-07-22T05:51:01;16.20;75.40
75666;DHT22;64263;49.492;11.056;2023-07-22T05:53:26;16.20;75.00
75666;DHT22;64263;49.492;11.056;2023-07-22T05:55:52;16.10;75.00
75666;DHT22;64263;49.492;11.056;2023-07-22T05:58:17;16.00;74.70
75666;DHT22;64263;49.492;11.056;2023-07-22T06:00:43;16.00;75.50
75666;DHT22;64263;49.492;11.056;2023-07-22T06:03:09;16.00;75.60
75666;DHT22;64263;49.492;11.056;2023-07-22T06:05:34;16.00;76.00
75666;DHT22;64263;49.492;11.056;2023-07-22T06:08:00;16.00;76.30
75666;DHT22;64263;49.492;11.056;2023-07-22T06:10:25;16.00;75.90
75666;DHT22;64263;49.492;11.056;2023-07-22T06:12:51;15.90;75.50
75666;DHT22;64263;49.492;11.056;2023-07-22T06:15:16;15.80;76.10
75666;DHT22;64263;49.492;11.056;2023-07-22T06:17:42;15.70;76.50
75666;DHT22;64263;49.492;11.056;2023-07-22T06:20:08;15.60;77.30
75666;DHT22;64263;49.492;11.056;2023-07-22T06:22:33;15.60;78.00
75666;DHT22;64263;49.492;11.056;2023-07-22T06:24:59;15.60;78.40
75666;DHT22;64263;49.492;11.056;2023-07-22T06:27:24;15.50;79.00
75666;DHT22;64263;49.492;11.056;2023-07-22T06:29:50;15.50;79.30
75666;DHT22;64263;49.492;11.056;2023-07-22T06:32:15;15.50;79.50
75666;DHT22;64263;49.492;11.056;2023-07-22T06:34:41;15.40;80.40
75666;DHT22;64263;49.492;11.056;2023-07-22T06:37:06;15.30;81.00
75666;DHT22;64263;49.492;11.056;2023-07-22T06:39:32;15.20;80.80
75666;DHT22;64263;49.492;11.056;2023-07-22T06:41:57;15.10;81.60
75666;DHT22;64263;49.492;11.056;2023-07-22T06:44:23;15.00;82.50
75666;DHT22;64263;49.492;11.056;2023-07-22T06:46:48;15.00;82.80
75666;DHT22;64263;49.492;11.056;2023-07-22T06:49:13;15.00;83.00
75666;DHT22;64263;49.492;11.056;2023-07-22T06:51:39;14.90;83.40
75666;DHT22;64263;49.492;11.056;2023-07-22T06:54:05;14.90;84.00
75666;DHT22;64263;49.492;11.056;2023-07-22T06:56:31;14.80;84.70
75666;DHT22;64263;49.492;11.056;2023-07-22T06:58:56;14.70;86.80
75666;DHT22;64263;49.492;11.056;2023-07-22T07:01:22;14.60;87.30
75666;DHT22;64263;49.492;11.056;2023-07-22T07:03:47;14.60;88.30
75666;DHT22;64263;49.492;11.056;2023-07-22T07:06:13;14.90;89.70
75666;DHT22;64263;49.492;11.056;2023-07-22T07:08:38;15.20;89.50
75666;DHT22;64263;49.492;11.056;2023-07-22T07:11:03;15.50;89.30
75666;DHT22;64263;49.492;11.056;2023-07-22T07:13:29;15.50;85.20
75666;DHT22;64263;49.492;11.056;2023-07-22T07:15:54;15.30;82.80
75666;DHT22;64263;49.492;11.056;2023-07-22T07:18:20;15.30;80.00
75666;DHT22;64263;49.492;11.056;2023-07-22T07:20:46;15.40;83.10
75666;DHT22;64263;49.492;11.056;2023-07-22T07:23:12;15.40;79.70
75666;DHT22;64263;49.492;11.056;2023-07-22T07:25:38;15.50;78.50
75666;DHT22;64263;49.492;11.056;2023-07-22T07:28:04;15.70;77.90
75666;DHT22;64263;49.492;11.056;2023-07-22T07:30:29;15.70;74.10
75666;DHT22;64263;49.492;11.056;2023-07-22T07:32:55;15.40;74.20
75666;DHT22;64263;49.492;11.056;2023-07-22T07:35:20;15.20;77.70
75666;DHT22;64263;49.492;11.056;2023-07-22T07:37:46;15.20;78.60
75666;DHT22;64263;49.492;11.056;2023-07-22T07:40:12;15.10;78.50
75666;DHT22;64263;49.492;11.056;2023-07-22T07:42:37;15.20;80.90
75666;DHT22;64263;49.492;11.056;2023-07-22T07:45:03;15.20;81.30
75666;DHT22;64263;49.492;11.056;2023-07-22T07:47:29;15.20;82.50
75666;DHT22;64263;49.492;11.056;2023-07-22T07:49:54;15.20;80.40
75666;DHT22;64263;49.492;11.056;2023-07-22T07:52:20;15.30;82.40
75666;DHT22;64263;49.492;11.056;2023-07-22T07:54:45;15.60;79.50
75666;DHT22;64263;49.492;11.056;2023-07-22T07:57:10;15.80;79.10
75666;DHT22;64263;49.492;11.056;2023-07-22T07:59:36;15.80;78.20
75666;DHT22;64263;49.492;11.056;2023-07-22T08:02:01;15.80;77.00
75666;DHT22;64263;49.492;11.056;2023-07-22T08:04:27;15.80;77.20
75666;DHT22;64263;49.492;11.056;2023-07-22T08:06:52;15.60;73.10
75666;DHT22;64263;49.492;11.056;2023-07-22T08:09:18;15.50;76.10
75666;DHT22;64263;49.492;11.056;2023-07-22T08:11:43;15.60;77.30
75666;DHT22;64263;49.492;11.056;2023-07-22T08:14:09;16.00;75.70
75666;DHT22;64263;49.492;11.056;2023-07-22T08:16:34;16.70;73.10
75666;DHT22;64263;49.492;11.056;2023-07-22T08:19:00;17.30;70.90
75666;DHT22;64263;49.492;11.056;2023-07-22T08:21:25;17.60;70.90
75666;DHT22;64263;49.492;11.056;2023-07-22T08:23:50;18.30;68.20
75666;DHT22;64263;49.492;11.056;2023-07-22T08:26:16;18.50;65.90
75666;DHT22;64263;49.492;11.056;2023-07-22T08:28:41;18.30;67.00
75666;DHT22;64263;49.492;11.056;2023-07-22T08:31:07;18.30;66.50
75666;DHT22;64263;49.492;11.056;2023-07-22T08:33:32;18.10;63.90
75666;DHT22;64263;49.492;11.056;2023-07-22T08:35:58;18.00;63.70
75666;DHT22;64263;49.492;11.056;2023-07-22T08:38:23;18.70;64.20
75666;DHT22;64263;49.492;11.056;2023-07-22T08:40:50;19.00;61.80
75666;DHT22;64263;49.492;11.056;2023-07-22T08:43:15;18.80;60.80
75666;DHT22;64263;49.492;11.056;2023-07-22T08:45:44;19.30;60.20
75666;DHT22;64263;49.492;11.056;2023-07-22T08:48:10;19.20;60.30
75666;DHT22;64263;49.492;11.056;2023-07-22T08:50:51;19.20;62.50
75666;DHT22;64263;49.492;11.056;2023-07-22T08:53:18;19.90;62.70
75666;DHT22;64263;49.492;11.056;2023-07-22T08:55:44;20.30;58.40
75666;DHT22;64263;49.492;11.056;2023-07-22T08:58:09;19.10;59.70
75666;DHT22;64263;49.492;11.056;2023-07-22T09:00:36;19.10;62.30
75666;DHT22;64263;49.492;11.056;2023-07-22T09:03:02;19.20;59.30
75666;DHT22;64263;49.492;11.056;2023-07-22T09:05:28;18.80;60.70
75666;DHT22;64263;49.492;11.056;2023-07-22T09:07:55;19.70;59.40
75666;DHT22;64263;49.492;11.056;2023-07-22T09:10:22;20.30;59.20
75666;DHT22;64263;49.492;11.056;2023-07-22T09:12:50;20.70;58.80
75666;DHT22;64263;49.492;11.056;2023-07-22T09:15:16;20.10;57.50
75666;DHT22;64263;49.492;11.056;2023-07-22T09:17:41;19.60;59.70
75666;DHT22;64263;49.492;11.056;2023-07-22T09:20:08;20.10;58.90
75666;DHT22;64263;49.492;11.056;2023-07-22T09:22:34;22.00;57.10
75666;DHT22;64263;49.492;11.056;2023-07-22T09:27:41;22.60;53.50
75666;DHT22;64263;49.492;11.056;2023-07-22T09:30:35;23.30;51.80
75666;DHT22;64263;49.492;11.056;2023-07-22T09:33:01;23.50;51.90
75666;DHT22;64263;49.492;11.056;2023-07-22T09:35:28;23.60;52.30
75666;DHT22;64263;49.492;11.056;2023-07-22T09:37:54;24.70;50.40
75666;DHT22;64263;49.492;11.056;2023-07-22T09:42:51;23.50;50.40
75666;DHT22;64263;49.492;11.056;2023-07-22T09:45:18;23.20;51.10
75666;DHT22;64263;49.492;11.056;2023-07-22T09:47:46;25.00;50.20
75666;DHT22;64263;49.492;11.056;2023-07-22T09:50:23;26.90;47.30
75666;DHT22;64263;49.492;11.056;2023-07-22T09:52:54;28.10;43.60
75666;DHT22;64263;49.492;11.056;2023-07-22T09:55:28;28.60;43.40
75666;DHT22;64263;49.492;11.056;2023-07-22T09:57:58;28.90;41.20
75666;DHT22;64263;49.492;11.056;2023-07-22T10:00:30;28.90;39.70
75666;DHT22;64263;49.492;11.056;2023-07-22T10:02:57;29.60;39.00
75666;DHT22;64263;49.492;11.056;2023-07-22T10:05:24;31.30;37.90
75666;DHT22;64263;49.492;11.056;2023-07-22T10:07:52;31.40;36.00
75666;DHT22;64263;49.492;11.056;2023-07-22T10:10:19;30.90;35.30
75666;DHT22;64263;49.492;11.056;2023-07-22T10:12:45;29.50;36.00
75666;DHT22;64263;49.492;11.056;2023-07-22T10:15:13;28.70;36.80
75666;DHT22;64263;49.492;11.056;2023-07-22T10:17:40;28.30;38.30
75666;DHT22;64263;49.492;11.056;2023-07-22T10:20:07;27.40;38.20
75666;DHT22;64263;49.492;11.056;2023-07-22T10:22:35;27.00;39.00
75666;DHT22;64263;49.492;11.056;2023-07-22T10:25:03;29.30;37.40
75666;DHT22;64263;49.492;11.056;2023-07-22T10:27:30;30.20;36.40
75666;DHT22;64263;49.492;11.056;2023-07-22T10:29:56;31.90;34.90
75666;DHT22;64263;49.492;11.056;2023-07-22T10:32:22;33.50;31.60
75666;DHT22;64263;49.492;11.056;2023-07-22T10:34:47;32.40;32.20
75666;DHT22;64263;49.492;11.056;2023-07-22T10:37:13;31.90;32.70
75666;DHT22;64263;49.492;11.056;2023-07-22T10:39:38;30.60;35.40
75666;DHT22;64263;49.492;11.056;2023-07-22T10:42:04;29.10;35.90
75666;DHT22;64263;49.492;11.056;2023-07-22T10:44:36;27.60;38.80
75666;DHT22;64263;49.492;11.056;2023-07-22T10:47:02;26.60;40.40
75666;DHT22;64263;49.492;11.056;2023-07-22T10:49:45;26.70;41.80
75666;DHT22;64263;49.492;11.056;2023-07-22T10:52:12;29.20;37.10
75666;DHT22;64263;49.492;11.056;2023-07-22T10:54:37;30.00;36.30
75666;DHT22;64263;49.492;11.056;2023-07-22T10:57:22;29.60;37.30
75666;DHT22;64263;49.492;11.056;2023-07-22T10:59:50;29.40;36.20
75666;DHT22;64263;49.492;11.056;2023-07-22T11:02:28;29.70;35.60
75666;DHT22;64263;49.492;11.056;2023-07-22T11:05:02;28.60;36.90
75666;DHT22;64263;49.492;11.056;2023-07-22T11:07:32;27.70;38.10
75666;DHT22;64263;49.492;11.056;2023-07-22T11:09:58;26.80;39.80
75666;DHT22;64263;49.492;11.056;2023-07-22T11:12:38;26.90;40.30
75666;DHT22;64263;49.492;11.056;2023-07-22T11:15:04;26.90;40.20
75666;DHT22;64263;49.492;11.056;2023-07-22T11:17:32;26.70;41.30
75666;DHT22;64263;49.492;11.056;2023-07-22T11:20:00;26.50;39.70
75666;DHT22;64263;49.492;11.056;2023-07-22T11:22:26;26.10;40.50
75666;DHT22;64263;49.492;11.056;2023-07-22T11:24:52;26.00;41.60
75666;DHT22;64263;49.492;11.056;2023-07-22T11:27:18;26.10;40.70
75666;DHT22;64263;49.492;11.056;2023-07-22T11:29:44;27.60;39.90
75666;DHT22;64263;49.492;11.056;2023-07-22T11:32:16;30.20;36.60
75666;DHT22;64263;49.492;11.056;2023-07-22T11:34:42;30.30;33.40
75666;DHT22;64263;49.492;11.056;2023-07-22T11:37:07;29.50;36.10
75666;DHT22;64263;49.492;11.056;2023-07-22T11:39:33;28.90;36.50
75666;DHT22;64263;49.492;11.056;2023-07-22T11:42:00;29.00;35.40
75666;DHT22;64263;49.492;11.056;2023-07-22T11:44:27;31.20;33.60
75666;DHT22;64263;49.492;11.056;2023-07-22T11:46:57;33.80;31.20
75666;DHT22;64263;49.492;11.056;2023-07-22T11:49:24;31.40;31.60
75666;DHT22;64263;49.492;11.056;2023-07-22T11:51:50;31.70;31.90
75666;DHT22;64263;49.492;11.056;2023-07-22T11:54:16;29.40;33.90
75666;DHT22;64263;49.492;11.056;2023-07-22T11:56:41;27.40;37.20
75666;DHT22;64263;49.492;11.056;2023-07-22T11:59:07;26.70;38.30
75666;DHT22;64263;49.492;11.056;2023-07-22T12:01:32;25.80;39.20
75666;DHT22;64263;49.492;11.056;2023-07-22T12:03:58;25.30;40.40
75666;DHT22;64263;49.492;11.056;2023-07-22T12:06:28;24.80;41.90
75666;DHT22;64263;49.492;11.056;2023-07-22T12:08:53;24.70;41.60
75666;DHT22;64263;49.492;11.056;2023-07-22T12:11:21;25.10;40.80
75666;DHT22;64263;49.492;11.056;2023-07-22T12:13:49;25.30;40.80
75666;DHT22;64263;49.492;11.056;2023-07-22T12:16:29;26.40;40.40
75666;DHT22;64263;49.492;11.056;2023-07-22T12:18:55;31.80;32.70
75666;DHT22;64263;49.492;11.056;2023-07-22T12:21:20;34.20;29.10
75666;DHT22;64263;49.492;11.056;2023-07-22T12:23:46;34.40;30.30
75666;DHT22;64263;49.492;11.056;2023-07-22T12:26:11;36.70;27.40
75666;DHT22;64263;49.492;11.056;2023-07-22T12:28:37;36.70;27.00
75666;DHT22;64263;49.492;11.056;2023-07-22T12:31:02;35.60;27.40
75666;DHT22;64263;49.492;11.056;2023-07-22T12:33:28;32.40;30.40
75666;DHT22;64263;49.492;11.056;2023-07-22T12:35:54;34.10;29.20
75666;DHT22;64263;49.492;11.056;2023-07-22T12:38:19;36.10;27.00
75666;DHT22;64263;49.492;11.056;2023-07-22T12:40:45;37.90;26.20
75666;DHT22;64263;49.492;11.056;2023-07-22T12:43:10;39.40;25.20
75666;DHT22;64263;49.492;11.056;2023-07-22T12:45:36;40.20;23.30
75666;DHT22;64263;49.492;11.056;2023-07-22T12:48:01;39.60;23.40
75666;DHT22;64263;49.492;11.056;2023-07-22T12:50:29;38.40;25.00
75666;DHT22;64263;49.492;11.056;2023-07-22T12:52:55;36.10;25.30
75666;DHT22;64263;49.492;11.056;2023-07-22T12:55:20;29.70;31.20
75666;DHT22;64263;49.492;11.056;2023-07-22T12:57:45;27.50;34.80
75666;DHT22;64263;49.492;11.056;2023-07-22T13:00:11;26.50;37.70
75666;DHT22;64263;49.492;11.056;2023-07-22T13:02:38;26.40;37.80
75666;DHT22;64263;49.492;11.056;2023-07-22T13:05:04;26.50;37.90
75666;DHT22;64263;49.492;11.056;2023-07-22T13:07:30;26.40;37.90
75666;DHT22;64263;49.492;11.056;2023-07-22T13:09:55;26.30;39.00
75666;DHT22;64263;49.492;11.056;2023-07-22T13:12:20;26.60;37.60
75666;DHT22;64263;49.492;11.056;2023-07-22T13:14:46;27.10;37.60
75666;DHT22;64263;49.492;11.056;2023-07-22T13:17:11;27.30;36.50
75666;DHT22;64263;49.492;11.056;2023-07-22T13:19:37;27.50;36.80
75666;DHT22;64263;49.492;11.056;2023-07-22T13:22:02;27.50;37.20
75666;DHT22;64263;49.492;11.056;2023-07-22T13:24:28;27.60;36.60
75666;DHT22;64263;49.492;11.056;2023-07-22T13:26:53;27.50;36.40
75666;DHT22;64263;49.492;11.056;2023-07-22T13:29:19;27.30;37.00
75666;DHT22;64263;49.492;11.056;2023-07-22T13:31:44;27.30;37.20
75666;DHT22;64263;49.492;11.056;2023-07-22T13:34:10;27.40;37.60
75666;DHT22;64263;49.492;11.056;2023-07-22T13:36:35;27.20;36.80
75666;DHT22;64263;49.492;11.056;2023-07-22T13:39:01;27.20;37.50
75666;DHT22;64263;49.492;11.056;2023-07-22T13:41:26;27.00;36.60
75666;DHT22;64263;49.492;11.056;2023-07-22T13:43:51;26.90;37.00
75666;DHT22;64263;49.492;11.056;2023-07-22T13:46:17;26.60;38.40
75666;DHT22;64263;49.492;11.056;2023-07-22T13:48:42;26.30;37.30
75666;DHT22;64263;49.492;11.056;2023-07-22T13:51:08;26.30;38.10
75666;DHT22;64263;49.492;11.056;2023-07-22T13:53:33;26.00;38.80
75666;DHT22;64263;49.492;11.056;2023-07-22T13:55:59;25.60;39.20
75666;DHT22;64263;49.492;11.056;2023-07-22T13:58:24;25.30;40.10
75666;DHT22;64263;49.492;11.056;2023-07-22T14:00:50;25.20;40.00
75666;DHT22;64263;49.492;11.056;2023-07-22T14:03:15;24.80;40.00
75666;DHT22;64263;49.492;11.056;2023-07-22T14:05:41;24.60;40.30
75666;DHT22;64263;49.492;11.056;2023-07-22T14:08:06;24.80;40.70
75666;DHT22;64263;49.492;11.056;2023-07-22T14:10:32;25.20;40.00
75666;DHT22;64263;49.492;11.056;2023-07-22T14:12:57;25.50;39.40
75666;DHT22;64263;49.492;11.056;2023-07-22T14:15:23;25.90;39.00
75666;DHT22;64263;49.492;11.056;2023-07-22T14:17:48;26.00;38.60
75666;DHT22;64263;49.492;11.056;2023-07-22T14:20:14;25.80;38.50
75666;DHT22;64263;49.492;11.056;2023-07-22T14:22:39;25.50;38.70
75666;DHT22;64263;49.492;11.056;2023-07-22T14:25:05;25.40;39.00
75666;DHT22;64263;49.492;11.056;2023-07-22T14:27:30;25.60;38.90
75666;DHT22;64263;49.492;11.056;2023-07-22T14:29:56;25.60;38.80
75666;DHT22;64263;49.492;11.056;2023-07-22T14:32:21;25.80;38.70
75666;DHT22;64263;49.492;11.056;2023-07-22T14:34:47;25.80;38.60
75666;DHT22;64263;49.492;11.056;2023-07-22T14:37:12;25.30;38.60
75666;DHT22;64263;49.492;11.056;2023-07-22T14:39:38;24.60;40.00
75666;DHT22;64263;49.492;11.056;2023-07-22T14:42:04;24.40;39.70
75666;DHT22;64263;49.492;11.056;2023-07-22T14:44:29;24.20;41.00
75666;DHT22;64263;49.492;11.056;2023-07-22T14:46:54;24.50;42.10
75666;DHT22;64263;49.492;11.056;2023-07-22T14:49:20;25.00;40.60
75666;DHT22;64263;49.492;11.056;2023-07-22T14:51:45;25.20;40.30
75666;DHT22;64263;49.492;11.056;2023-07-22T14:54:11;25.50;39.90
75666;DHT22;64263;49.492;11.056;2023-07-22T14:56:36;25.40;39.40
75666;DHT22;64263;49.492;11.056;2023-07-22T14:59:02;25.10;39.70
75666;DHT22;64263;49.492;11.056;2023-07-22T15:01:36;25.00;42.20
75666;DHT22;64263;49.492;11.056;2023-07-22T15:04:02;24.70;41.40
75666;DHT22;64263;49.492;11.056;2023-07-22T15:06:27;24.60;42.60
75666;DHT22;64263;49.492;11.056;2023-07-22T15:08:53;24.60;41.30
75666;DHT22;64263;49.492;11.056;2023-07-22T15:11:18;24.70;41.80
75666;DHT22;64263;49.492;11.056;2023-07-22T15:13:44;24.80;42.40